sensor_id;sensor_type;location;lat;lon;timestamp;temperature;humidity
53653;DHT22;39553;52.954;5.932;2023-04-25T00:01:40;5.80;99.90
53653;DHT22;39553;52.954;5.932;2023-04-25T00:04:06;5.80;99.90
53653;DHT22;39553;52.954;5.932;2023-04-25T00:06:34;5.70;99.90
53653;DHT22;39553;52.954;5.932;2023-04-25T00:09:05;5.70;99.90
53653;DHT22;39553;52.954;5.932;2023-04-25T00:11:33;5.70;99.90
53653;DHT22;39553;52.954;5.932;2023-04-25T00:14:00;5.70;99.90
53653;DHT22;39553;52.954;5.932;2023-04-25T00:16:28;5.70;99.90
53653;DHT22;39553;52.954;5.932;2023-04-25T00:18:55;5.70;99.90
53653;DHT22;39553;52.954;5.932;2023-04-25T00:21:21;5.70;99.90
53653;DHT22;39553;52.954;5.932;2023-04-25T00:23:47;5.70;99.90
53653;DHT22;39553;52.954;5.932;2023-04-25T00:26:13;5.30;99.90
53653;DHT22;39553;52.954;5.932;2023-04-25T00:28:39;6.20;99.90
53653;DHT22;39553;52.954;5.932;2023-04-25T00:31:06;5.90;99.90
53653;DHT22;39553;52.954;5.932;2023-04-25T00:33:32;6.80;99.90
53653;DHT22;39553;52.954;5.932;2023-04-25T00:35:57;5.90;99.90
53653;DHT22;39553;52.954;5.932;2023-04-25T00:38:23;6.40;99.90
53653;DHT22;39553;52.954;5.932;2023-04-25T00:40:49;5.90;99.90
53653;DHT22;39553;52.954;5.932;2023-04-25T00:43:15;6.00;99.90
53653;DHT22;39553;52.954;5.932;2023-04-25T00:45:43;6.00;99.90
53653;DHT22;39553;52.954;5.932;2023-04-25T00:48:08;6.00;99.90
53653;DHT22;39553;52.954;5.932;2023-04-25T00:50:35;6.00;99.90
53653;DHT22;39553;52.954;5.932;2023-04-25T00:53:02;6.20;99.90
53653;DHT22;39553;52.954;5.932;2023-04-25T00:55:29;6.20;99.90
53653;DHT22;39553;52.954;5.932;2023-04-25T00:57:57;6.10;99.90
53653;DHT22;39553;52.954;5.932;2023-04-25T01:00:22;6.10;99.90
53653;DHT22;39553;52.954;5.932;2023-04-25T01:02:48;6.10;99.90
53653;DHT22;39553;52.954;5.932;2023-04-25T01:05:15;6.20;99.90
53653;DHT22;39553;52.954;5.932;2023-04-25T01:07:43;6.60;99.90
53653;DHT22;39553;52.954;5.932;2023-04-25T01:10:09;6.10;99.90
53653;DHT22;39553;52.954;5.932;2023-04-25T01:12:35;6.20;99.90
53653;DHT22;39553;52.954;5.932;2023-04-25T01:15:01;6.10;99.90
53653;DHT22;39553;52.954;5.932;2023-04-25T01:17:27;6.10;99.90
53653;DHT22;39553;52.954;5.932;2023-04-25T01:19:54;6.20;99.90
53653;DHT22;39553;52.954;5.932;2023-04-25T01:22:20;6.20;99.90
53653;DHT22;39553;52.954;5.932;2023-04-25T01:24:46;6.10;99.90
53653;DHT22;39553;52.954;5.932;2023-04-25T01:27:12;6.10;99.90
53653;DHT22;39553;52.954;5.932;2023-04-25T01:29:38;6.10;99.90
53653;DHT22;39553;52.954;5.932;2023-04-25T01:32:05;6.00;99.90
53653;DHT22;39553;52.954;5.932;2023-04-25T01:34:31;6.00;99.90
53653;DHT22;39553;52.954;5.932;2023-04-25T01:36:59;6.00;99.90
53653;DHT22;39553;52.954;5.932;2023-04-25T01:39:25;6.00;99.90
53653;DHT22;39553;52.954;5.932;2023-04-25T01:41:51;6.00;99.90
53653;DHT22;39553;52.954;5.932;2023-04-25T01:44:17;6.00;99.90
53653;DHT22;39553;52.954;5.932;2023-04-25T01:46:42;6.00;99.90
53653;DHT22;39553;52.954;5.932;2023-04-25T01:49:08;6.10;99.90
53653;DHT22;39553;52.954;5.932;2023-04-25T01:51:34;5.90;99.90
53653;DHT22;39553;52.954;5.932;2023-04-25T01:54:00;5.90;99.90
53653;DHT22;39553;52.954;5.932;2023-04-25T01:56:30;5.90;99.90
53653;DHT22;39553;52.954;5.932;2023-04-25T01:58:57;6.00;99.90
53653;DHT22;39553;52.954;5.932;2023-04-25T02:01:23;5.90;99.90
53653;DHT22;39553;52.954;5.932;2023-04-25T02:03:48;5.90;99.90
53653;DHT22;39553;52.954;5.932;2023-04-25T02:06:14;5.90;99.90
53653;DHT22;39553;52.954;5.932;2023-04-25T02:08:40;5.80;99.90
53653;DHT22;39553;52.954;5.932;2023-04-25T02:11:05;5.80;99.90
53653;DHT22;39553;52.954;5.932;2023-04-25T02:13:31;5.80;99.90
53653;DHT22;39553;52.954;5.932;2023-04-25T02:15:57;5.70;99.90
53653;DHT22;39553;52.954;5.932;2023-04-25T02:18:24;5.70;99.90
53653;DHT22;39553;52.954;5.932;2023-04-25T02:20:52;5.50;99.90
53653;DHT22;39553;52.954;5.932;2023-04-25T02:23:17;5.60;99.90
53653;DHT22;39553;52.954;5.932;2023-04-25T02:25:44;5.60;99.90
53653;DHT22;39553;52.954;5.932;2023-04-25T02:28:10;5.50;99.90
53653;DHT22;39553;52.954;5.932;2023-04-25T02:30:37;5.50;99.90
53653;DHT22;39553;52.954;5.932;2023-04-25T02:33:03;5.50;99.90
53653;DHT22;39553;52.954;5.932;2023-04-25T02:35:28;5.50;99.90
53653;DHT22;39553;52.954;5.932;2023-04-25T02:37:54;5.40;99.90
53653;DHT22;39553;52.954;5.932;2023-04-25T02:40:20;5.50;99.90
53653;DHT22;39553;52.954;5.932;2023-04-25T02:42:46;5.50;99.90
53653;DHT22;39553;52.954;5.932;2023-04-25T02:45:12;5.40;99.90
53653;DHT22;39553;52.954;5.932;2023-04-25T02:47:38;5.30;99.90
53653;DHT22;39553;52.954;5.932;2023-04-25T02:50:04;5.30;99.90
53653;DHT22;39553;52.954;5.932;2023-04-25T02:52:30;5.30;99.90
53653;DHT22;39553;52.954;5.932;2023-04-25T02:54:56;5.30;99.90
53653;DHT22;39553;52.954;5.932;2023-04-25T02:57:21;5.30;99.90
53653;DHT22;39553;52.954;5.932;2023-04-25T02:59:48;5.90;99.90
53653;DHT22;39553;52.954;5.932;2023-04-25T03:02:14;5.30;99.90
53653;DHT22;39553;52.954;5.932;2023-04-25T03:04:40;5.40;99.90
53653;DHT22;39553;52.954;5.932;2023-04-25T03:07:06;5.40;99.90
53653;DHT22;39553;52.954;5.932;2023-04-25T03:09:31;5.90;99.90
53653;DHT22;39553;52.954;5.932;2023-04-25T03:11:57;5.40;99.90
53653;DHT22;39553;52.954;5.932;2023-04-25T03:14:23;5.60;99.90
53653;DHT22;39553;52.954;5.932;2023-04-25T03:16:49;5.40;99.90
53653;DHT22;39553;52.954;5.932;2023-04-25T03:19:15;5.40;99.90
53653;DHT22;39553;52.954;5.932;2023-04-25T03:21:44;5.40;99.90
53653;DHT22;39553;52.954;5.932;2023-04-25T03:24:10;5.40;99.90
53653;DHT22;39553;52.954;5.932;2023-04-25T03:26:37;5.90;99.90
53653;DHT22;39553;52.954;5.932;2023-04-25T03:29:03;5.70;99.90
53653;DHT22;39553;52.954;5.932;2023-04-25T03:31:29;5.40;99.90
53653;DHT22;39553;52.954;5.932;2023-04-25T03:33:54;5.30;99.90
53653;DHT22;39553;52.954;5.932;2023-04-25T03:36:20;5.10;99.90
53653;DHT22;39553;52.954;5.932;2023-04-25T03:38:46;4.80;99.90
53653;DHT22;39553;52.954;5.932;2023-04-25T03:41:13;4.70;99.90
53653;DHT22;39553;52.954;5.932;2023-04-25T03:43:39;4.70;99.90
53653;DHT22;39553;52.954;5.932;2023-04-25T03:46:05;4.70;99.90
53653;DHT22;39553;52.954;5.932;2023-04-25T03:48:31;4.80;99.90
53653;DHT22;39553;52.954;5.932;2023-04-25T03:50:57;4.90;99.90
53653;DHT22;39553;52.954;5.932;2023-04-25T03:53:22;4.90;99.90
53653;DHT22;39553;52.954;5.932;2023-04-25T03:55:48;6.00;99.90
53653;DHT22;39553;52.954;5.932;2023-04-25T03:58:14;5.00;99.90
53653;DHT22;39553;52.954;5.932;2023-04-25T04:00:40;4.90;99.90
53653;DHT22;39553;52.954;5.932;2023-04-25T04:03:05;4.70;99.90
53653;DHT22;39553;52.954;5.932;2023-04-25T04:05:31;4.60;99.90
53653;DHT22;39553;52.954;5.932;2023-04-25T04:07:58;4.60;99.90
53653;DHT22;39553;52.954;5.932;2023-04-25T04:10:23;4.60;99.90
53653;DHT22;39553;52.954;5.932;2023-04-25T04:12:50;4.70;99.90
53653;DHT22;39553;52.954;5.932;2023-04-25T04:15:16;4.80;99.90
53653;DHT22;39553;52.954;5.932;2023-04-25T04:17:41;4.90;99.90
53653;DHT22;39553;52.954;5.932;2023-04-25T04:20:07;5.00;99.90
53653;DHT22;39553;52.954;5.932;2023-04-25T04:22:34;5.10;99.90
53653;DHT22;39553;52.954;5.932;2023-04-25T04:25:00;5.40;99.90
53653;DHT22;39553;52.954;5.932;2023-04-25T04:27:26;5.10;99.90
53653;DHT22;39553;52.954;5.932;2023-04-25T04:29:54;5.20;99.90
53653;DHT22;39553;52.954;5.932;2023-04-25T04:32:20;5.10;99.90
53653;DHT22;39553;52.954;5.932;2023-04-25T04:34:45;5.10;99.90
53653;DHT22;39553;52.954;5.932;2023-04-25T04:37:12;5.00;99.90
53653;DHT22;39553;52.954;5.932;2023-04-25T04:39:38;5.00;99.90
53653;DHT22;39553;52.954;5.932;2023-04-25T04:42:04;5.00;99.90
53653;DHT22;39553;52.954;5.932;2023-04-25T04:44:30;4.90;99.90
53653;DHT22;39553;52.954;5.932;2023-04-25T04:47:00;4.90;99.90
53653;DHT22;39553;52.954;5.932;2023-04-25T04:49:25;5.70;99.90
53653;DHT22;39553;52.954;5.932;2023-04-25T04:51:51;4.90;99.90
53653;DHT22;39553;52.954;5.932;2023-04-25T04:54:18;5.00;99.90
53653;DHT22;39553;52.954;5.932;2023-04-25T04:56:51;5.10;99.90
53653;DHT22;39553;52.954;5.932;2023-04-25T04:59:18;5.20;99.90
53653;DHT22;39553;52.954;5.932;2023-04-25T05:01:47;5.00;99.90
53653;DHT22;39553;52.954;5.932;2023-04-25T05:04:13;5.20;99.90
53653;DHT22;39553;52.954;5.932;2023-04-25T05:06:39;5.00;99.90
53653;DHT22;39553;52.954;5.932;2023-04-25T05:09:06;5.00;99.90
53653;DHT22;39553;52.954;5.932;2023-04-25T05:11:32;4.90;99.90
53653;DHT22;39553;52.954;5.932;2023-04-25T05:14:01;4.80;99.90
53653;DHT22;39553;52.954;5.932;2023-04-25T05:16:27;4.80;99.90
53653;DHT22;39553;52.954;5.932;2023-04-25T05:18:53;4.80;99.90
53653;DHT22;39553;52.954;5.932;2023-04-25T05:21:19;4.90;99.90
53653;DHT22;39553;52.954;5.932;2023-04-25T05:23:44;4.90;99.90
53653;DHT22;39553;52.954;5.932;2023-04-25T05:26:10;5.00;99.90
53653;DHT22;39553;52.954;5.932;2023-04-25T05:28:42;5.10;99.90
53653;DHT22;39553;52.954;5.932;2023-04-25T05:31:10;5.20;99.90
53653;DHT22;39553;52.954;5.932;2023-04-25T05:33:35;5.20;99.90
53653;DHT22;39553;52.954;5.932;2023-04-25T05:36:01;5.30;99.90
53653;DHT22;39553;52.954;5.932;2023-04-25T05:38:27;5.30;99.90
53653;DHT22;39553;52.954;5.932;2023-04-25T05:40:53;5.30;99.90
53653;DHT22;39553;52.954;5.932;2023-04-25T05:43:18;5.40;99.90
53653;DHT22;39553;52.954;5.932;2023-04-25T05:45:44;5.40;99.90
53653;DHT22;39553;52.954;5.932;2023-04-25T05:48:10;5.40;99.90
53653;DHT22;39553;52.954;5.932;2023-04-25T05:50:37;5.50;99.90
53653;DHT22;39553;52.954;5.932;2023-04-25T05:53:03;5.50;99.90
53653;DHT22;39553;52.954;5.932;2023-04-25T05:55:31;5.80;99.90
53653;DHT22;39553;52.954;5.932;2023-04-25T05:57:56;6.80;99.90
53653;DHT22;39553;52.954;5.932;2023-04-25T06:00:22;6.70;99.90
53653;DHT22;39553;52.954;5.932;2023-04-25T06:02:49;7.10;99.90
53653;DHT22;39553;52.954;5.932;2023-04-25T06:05:15;7.40;99.90
53653;DHT22;39553;52.954;5.932;2023-04-25T06:07:40;7.70;99.90
53653;DHT22;39553;52.954;5.932;2023-04-25T06:10:07;7.90;96.30
53653;DHT22;39553;52.954;5.932;2023-04-25T06:12:33;8.10;97.70
53653;DHT22;39553;52.954;5.932;2023-04-25T06:14:59;8.00;96.40
53653;DHT22;39553;52.954;5.932;2023-04-25T06:17:25;8.10;96.70
53653;DHT22;39553;52.954;5.932;2023-04-25T06:19:52;8.10;95.10
53653;DHT22;39553;52.954;5.932;2023-04-25T06:22:18;8.10;96.90
53653;DHT22;39553;52.954;5.932;2023-04-25T06:24:44;8.00;97.20
53653;DHT22;39553;52.954;5.932;2023-04-25T06:27:11;7.70;97.00
53653;DHT22;39553;52.954;5.932;2023-04-25T06:29:37;7.30;97.30
53653;DHT22;39553;52.954;5.932;2023-04-25T06:32:02;7.10;98.50
53653;DHT22;39553;52.954;5.932;2023-04-25T06:34:28;7.00;98.90
53653;DHT22;39553;52.954;5.932;2023-04-25T06:36:54;7.50;99.90
53653;DHT22;39553;52.954;5.932;2023-04-25T06:39:20;7.00;99.90
53653;DHT22;39553;52.954;5.932;2023-04-25T06:41:48;7.10;99.90
53653;DHT22;39553;52.954;5.932;2023-04-25T06:44:14;7.50;99.90
53653;DHT22;39553;52.954;5.932;2023-04-25T06:46:40;8.20;99.90
53653;DHT22;39553;52.954;5.932;2023-04-25T06:49:06;7.90;98.50
53653;DHT22;39553;52.954;5.932;2023-04-25T06:51:32;8.90;97.10
53653;DHT22;39553;52.954;5.932;2023-04-25T06:53:58;9.10;97.00
53653;DHT22;39553;52.954;5.932;2023-04-25T06:56:24;9.40;95.70
53653;DHT22;39553;52.954;5.932;2023-04-25T06:58:50;9.60;95.50
53653;DHT22;39553;52.954;5.932;2023-04-25T07:01:15;9.40;94.70
53653;DHT22;39553;52.954;5.932;2023-04-25T07:03:41;9.20;96.30
53653;DHT22;39553;52.954;5.932;2023-04-25T07:06:07;9.20;95.90
53653;DHT22;39553;52.954;5.932;2023-04-25T07:08:33;9.10;97.40
53653;DHT22;39553;52.954;5.932;2023-04-25T07:10:59;9.20;95.80
53653;DHT22;39553;52.954;5.932;2023-04-25T07:13:24;9.30;94.80
53653;DHT22;39553;52.954;5.932;2023-04-25T07:15:50;9.30;95.30
53653;DHT22;39553;52.954;5.932;2023-04-25T07:18:16;9.30;94.20
53653;DHT22;39553;52.954;5.932;2023-04-25T07:20:42;8.90;94.70
53653;DHT22;39553;52.954;5.932;2023-04-25T07:23:07;8.60;93.70
53653;DHT22;39553;52.954;5.932;2023-04-25T07:25:33;8.50;95.20
53653;DHT22;39553;52.954;5.932;2023-04-25T07:27:59;7.40;95.80
53653;DHT22;39553;52.954;5.932;2023-04-25T07:30:25;6.20;98.80
53653;DHT22;39553;52.954;5.932;2023-04-25T07:32:51;5.40;99.90
53653;DHT22;39553;52.954;5.932;2023-04-25T07:35:17;5.00;99.90
53653;DHT22;39553;52.954;5.932;2023-04-25T07:37:43;4.70;99.90
53653;DHT22;39553;52.954;5.932;2023-04-25T07:40:09;4.70;99.90
53653;DHT22;39553;52.954;5.932;2023-04-25T07:42:35;4.30;99.90
53653;DHT22;39553;52.954;5.932;2023-04-25T07:45:01;5.00;99.90
53653;DHT22;39553;52.954;5.932;2023-04-25T07:47:28;5.30;99.90
53653;DHT22;39553;52.954;5.932;2023-04-25T07:49:54;5.50;99.90
53653;DHT22;39553;52.954;5.932;2023-04-25T07:52:20;5.80;96.40
53653;DHT22;39553;52.954;5.932;2023-04-25T07:54:46;6.10;99.40
53653;DHT22;39553;52.954;5.932;2023-04-25T07:57:12;6.30;99.60
53653;DHT22;39553;52.954;5.932;2023-04-25T07:59:39;6.50;98.10
53653;DHT22;39553;52.954;5.932;2023-04-25T08:02:05;6.90;99.90
53653;DHT22;39553;52.954;5.932;2023-04-25T08:04:32;7.20;96.90
53653;DHT22;39553;52.954;5.932;2023-04-25T08:07:05;7.90;97.20
53653;DHT22;39553;52.954;5.932;2023-04-25T08:09:34;8.60;96.20
53653;DHT22;39553;52.954;5.932;2023-04-25T08:12:01;9.20;92.80
53653;DHT22;39553;52.954;5.932;2023-04-25T08:14:30;9.40;92.30
53653;DHT22;39553;52.954;5.932;2023-04-25T08:17:02;9.20;91.40
53653;DHT22;39553;52.954;5.932;2023-04-25T08:19:29;9.30;91.50
53653;DHT22;39553;52.954;5.932;2023-04-25T08:21:56;9.50;89.60
53653;DHT22;39553;52.954;5.932;2023-04-25T08:24:30;9.00;92.30
53653;DHT22;39553;52.954;5.932;2023-04-25T08:26:56;9.20;93.40
53653;DHT22;39553;52.954;5.932;2023-04-25T08:29:22;8.40;91.80
53653;DHT22;39553;52.954;5.932;2023-04-25T08:31:50;8.10;93.60
53653;DHT22;39553;52.954;5.932;2023-04-25T08:34:16;7.80;93.90
53653;DHT22;39553;52.954;5.932;2023-04-25T08:36:42;8.00;94.70
53653;DHT22;39553;52.954;5.932;2023-04-25T08:39:07;8.70;93.80
53653;DHT22;39553;52.954;5.932;2023-04-25T08:41:34;9.60;93.80
53653;DHT22;39553;52.954;5.932;2023-04-25T08:44:03;9.80;91.00
53653;DHT22;39553;52.954;5.932;2023-04-25T08:46:31;10.30;91.40
53653;DHT22;39553;52.954;5.932;2023-04-25T08:49:02;10.60;85.00
53653;DHT22;39553;52.954;5.932;2023-04-25T08:51:31;10.50;90.10
53653;DHT22;39553;52.954;5.932;2023-04-25T08:54:11;10.80;91.50
53653;DHT22;39553;52.954;5.932;2023-04-25T08:56:41;11.10;90.00
53653;DHT22;39553;52.954;5.932;2023-04-25T08:59:11;10.90;81.10
53653;DHT22;39553;52.954;5.932;2023-04-25T09:01:37;10.40;84.70
53653;DHT22;39553;52.954;5.932;2023-04-25T09:04:02;10.80;87.10
53653;DHT22;39553;52.954;5.932;2023-04-25T09:06:32;10.70;85.10
53653;DHT22;39553;52.954;5.932;2023-04-25T09:09:04;9.80;85.70
53653;DHT22;39553;52.954;5.932;2023-04-25T09:11:34;9.40;90.60
53653;DHT22;39553;52.954;5.932;2023-04-25T09:14:18;10.10;92.30
53653;DHT22;39553;52.954;5.932;2023-04-25T09:16:57;10.80;90.90
53653;DHT22;39553;52.954;5.932;2023-04-25T09:19:30;10.30;85.00
53653;DHT22;39553;52.954;5.932;2023-04-25T09:21:57;10.00;81.90
53653;DHT22;39553;52.954;5.932;2023-04-25T09:24:31;10.50;85.50
53653;DHT22;39553;52.954;5.932;2023-04-25T09:26:57;10.70;84.60
53653;DHT22;39553;52.954;5.932;2023-04-25T09:29:31;10.40;84.40
53653;DHT22;39553;52.954;5.932;2023-04-25T09:32:22;9.70;81.70
53653;DHT22;39553;52.954;5.932;2023-04-25T09:34:53;9.30;90.10
53653;DHT22;39553;52.954;5.932;2023-04-25T09:37:28;8.80;90.90
53653;DHT22;39553;52.954;5.932;2023-04-25T09:39:57;8.10;92.20
53653;DHT22;39553;52.954;5.932;2023-04-25T09:42:28;7.40;95.40
53653;DHT22;39553;52.954;5.932;2023-04-25T09:44:57;7.00;98.10
53653;DHT22;39553;52.954;5.932;2023-04-25T09:47:25;6.80;99.70
53653;DHT22;39553;52.954;5.932;2023-04-25T09:49:54;7.00;99.90
53653;DHT22;39553;52.954;5.932;2023-04-25T09:52:22;6.30;99.90
53653;DHT22;39553;52.954;5.932;2023-04-25T09:54:49;6.30;99.90
53653;DHT22;39553;52.954;5.932;2023-04-25T09:57:24;6.50;99.90
53653;DHT22;39553;52.954;5.932;2023-04-25T09:59:54;6.60;99.90
53653;DHT22;39553;52.954;5.932;2023-04-25T10:02:25;6.20;99.90
53653;DHT22;39553;52.954;5.932;2023-04-25T10:04:53;6.00;99.90
53653;DHT22;39553;52.954;5.932;2023-04-25T10:07:29;6.20;99.90
53653;DHT22;39553;52.954;5.932;2023-04-25T10:10:00;6.60;99.90
53653;DHT22;39553;52.954;5.932;2023-04-25T10:12:28;7.10;99.90
53653;DHT22;39553;52.954;5.932;2023-04-25T10:14:54;7.40;99.90
53653;DHT22;39553;52.954;5.932;2023-04-25T10:17:20;7.80;99.90
53653;DHT22;39553;52.954;5.932;2023-04-25T10:19:50;8.50;99.90
53653;DHT22;39553;52.954;5.932;2023-04-25T10:22:38;9.30;97.80
53653;DHT22;39553;52.954;5.932;2023-04-25T10:25:06;10.00;95.80
53653;DHT22;39553;52.954;5.932;2023-04-25T10:27:34;10.30;93.90
53653;DHT22;39553;52.954;5.932;2023-04-25T10:30:15;10.60;95.60
53653;DHT22;39553;52.954;5.932;2023-04-25T10:32:42;10.90;90.20
53653;DHT22;39553;52.954;5.932;2023-04-25T10:35:23;11.30;94.30
53653;DHT22;39553;52.954;5.932;2023-04-25T10:38:11;11.80;89.30
53653;DHT22;39553;52.954;5.932;2023-04-25T10:40:38;11.90;86.60
53653;DHT22;39553;52.954;5.932;2023-04-25T10:43:33;11.90;83.80
53653;DHT22;39553;52.954;5.932;2023-04-25T10:45:59;11.80;76.70
53653;DHT22;39553;52.954;5.932;2023-04-25T10:48:31;11.80;86.60
53653;DHT22;39553;52.954;5.932;2023-04-25T10:51:10;10.90;80.70
53653;DHT22;39553;52.954;5.932;2023-04-25T10:53:36;10.10;78.20
53653;DHT22;39553;52.954;5.932;2023-04-25T10:56:18;10.30;83.30
53653;DHT22;39553;52.954;5.932;2023-04-25T10:58:45;10.80;70.90
53653;DHT22;39553;52.954;5.932;2023-04-25T11:01:19;11.10;77.20
53653;DHT22;39553;52.954;5.932;2023-04-25T11:03:45;11.50;70.40
53653;DHT22;39553;52.954;5.932;2023-04-25T11:09:03;11.30;74.50
53653;DHT22;39553;52.954;5.932;2023-04-25T11:11:36;11.40;78.00
53653;DHT22;39553;52.954;5.932;2023-04-25T11:14:02;11.80;78.40
53653;DHT22;39553;52.954;5.932;2023-04-25T11:16:28;12.20;71.20
53653;DHT22;39553;52.954;5.932;2023-04-25T11:18:57;12.30;71.10
53653;DHT22;39553;52.954;5.932;2023-04-25T11:21:24;11.80;76.30
53653;DHT22;39553;52.954;5.932;2023-04-25T11:23:51;11.40;83.20
53653;DHT22;39553;52.954;5.932;2023-04-25T11:26:19;11.40;86.30
53653;DHT22;39553;52.954;5.932;2023-04-25T11:28:45;11.70;87.50
53653;DHT22;39553;52.954;5.932;2023-04-25T11:31:13;11.60;87.70
53653;DHT22;39553;52.954;5.932;2023-04-25T11:33:38;11.90;90.70
53653;DHT22;39553;52.954;5.932;2023-04-25T11:36:06;11.90;85.00
53653;DHT22;39553;52.954;5.932;2023-04-25T11:38:32;11.20;82.00
53653;DHT22;39553;52.954;5.932;2023-04-25T11:40:59;10.70;83.00
53653;DHT22;39553;52.954;5.932;2023-04-25T11:43:25;10.10;83.70
53653;DHT22;39553;52.954;5.932;2023-04-25T11:45:54;9.20;87.70
53653;DHT22;39553;52.954;5.932;2023-04-25T11:48:21;8.50;92.60
53653;DHT22;39553;52.954;5.932;2023-04-25T11:50:46;7.40;93.40
53653;DHT22;39553;52.954;5.932;2023-04-25T11:53:18;7.10;97.70
53653;DHT22;39553;52.954;5.932;2023-04-25T11:55:44;7.00;96.30
53653;DHT22;39553;52.954;5.932;2023-04-25T11:58:10;7.20;96.50
53653;DHT22;39553;52.954;5.932;2023-04-25T12:00:36;7.90;94.40
53653;DHT22;39553;52.954;5.932;2023-04-25T12:03:02;8.50;91.90
53653;DHT22;39553;52.954;5.932;2023-04-25T12:05:30;9.00;92.70
53653;DHT22;39553;52.954;5.932;2023-04-25T12:07:56;9.20;92.00
53653;DHT22;39553;52.954;5.932;2023-04-25T12:10:24;9.40;90.70
53653;DHT22;39553;52.954;5.932;2023-04-25T12:12:51;9.70;90.40
53653;DHT22;39553;52.954;5.932;2023-04-25T12:15:18;9.70;92.20
53653;DHT22;39553;52.954;5.932;2023-04-25T12:17:50;9.40;91.10
53653;DHT22;39553;52.954;5.932;2023-04-25T12:20:19;9.30;92.90
53653;DHT22;39553;52.954;5.932;2023-04-25T12:22:50;9.30;92.40
53653;DHT22;39553;52.954;5.932;2023-04-25T12:25:43;9.30;92.30
53653;DHT22;39553;52.954;5.932;2023-04-25T12:28:14;9.40;84.00
53653;DHT22;39553;52.954;5.932;2023-04-25T12:31:03;9.50;87.10
53653;DHT22;39553;52.954;5.932;2023-04-25T12:33:34;9.80;83.10
53653;DHT22;39553;52.954;5.932;2023-04-25T12:36:01;9.80;78.40
53653;DHT22;39553;52.954;5.932;2023-04-25T12:38:41;9.80;82.80
53653;DHT22;39553;52.954;5.932;2023-04-25T12:41:08;9.90;81.30
53653;DHT22;39553;52.954;5.932;2023-04-25T12:43:34;10.40;82.30
53653;DHT22;39553;52.954;5.932;2023-04-25T12:46:01;10.50;76.10
53653;DHT22;39553;52.954;5.932;2023-04-25T12:48:27;10.60;81.70
53653;DHT22;39553;52.954;5.932;2023-04-25T12:50:52;10.70;81.40
53653;DHT22;39553;52.954;5.932;2023-04-25T12:53:23;10.90;76.20
53653;DHT22;39553;52.954;5.932;2023-04-25T12:55:50;10.50;77.00
53653;DHT22;39553;52.954;5.932;2023-04-25T12:58:18;10.20;79.80
53653;DHT22;39553;52.954;5.932;2023-04-25T13:00:44;9.30;77.80
53653;DHT22;39553;52.954;5.932;2023-04-25T13:03:11;8.50;86.40
53653;DHT22;39553;52.954;5.932;2023-04-25T13:05:38;8.30;82.10
53653;DHT22;39553;52.954;5.932;2023-04-25T13:08:04;8.20;83.20
53653;DHT22;39553;52.954;5.932;2023-04-25T13:10:30;8.80;86.10
53653;DHT22;39553;52.954;5.932;2023-04-25T13:12:56;9.60;84.70
53653;DHT22;39553;52.954;5.932;2023-04-25T13:15:22;9.80;82.50
53653;DHT22;39553;52.954;5.932;2023-04-25T13:17:49;9.80;81.70
53653;DHT22;39553;52.954;5.932;2023-04-25T13:20:14;9.60;83.30
53653;DHT22;39553;52.954;5.932;2023-04-25T13:22:42;9.40;82.00
53653;DHT22;39553;52.954;5.932;2023-04-25T13:25:08;9.20;84.10
53653;DHT22;39553;52.954;5.932;2023-04-25T13:27:36;8.70;91.50
53653;DHT22;39553;52.954;5.932;2023-04-25T13:30:03;8.10;97.70
53653;DHT22;39553;52.954;5.932;2023-04-25T13:32:36;7.10;97.90
53653;DHT22;39553;52.954;5.932;2023-04-25T13:35:10;6.60;99.10
53653;DHT22;39553;52.954;5.932;2023-04-25T13:37:37;6.40;99.90
53653;DHT22;39553;52.954;5.932;2023-04-25T13:40:05;6.40;99.90
53653;DHT22;39553;52.954;5.932;2023-04-25T13:42:31;6.40;99.90
53653;DHT22;39553;52.954;5.932;2023-04-25T13:44:57;6.60;97.90
53653;DHT22;39553;52.954;5.932;2023-04-25T13:47:25;7.70;98.00
53653;DHT22;39553;52.954;5.932;2023-04-25T13:49:51;7.30;97.70
53653;DHT22;39553;52.954;5.932;2023-04-25T13:52:17;8.50;96.90
53653;DHT22;39553;52.954;5.932;2023-04-25T13:54:42;7.80;96.10
53653;DHT22;39553;52.954;5.932;2023-04-25T13:57:08;8.10;96.40
53653;DHT22;39553;52.954;5.932;2023-04-25T13:59:34;8.50;95.50
53653;DHT22;39553;52.954;5.932;2023-04-25T14:02:00;8.60;91.90
53653;DHT22;39553;52.954;5.932;2023-04-25T14:04:26;8.60;93.50
53653;DHT22;39553;52.954;5.932;2023-04-25T14:06:51;8.40;92.30
53653;DHT22;39553;52.954;5.932;2023-04-25T14:09:18;8.30;91.90
53653;DHT22;39553;52.954;5.932;2023-04-25T14:11:46;8.20;92.80
53653;DHT22;39553;52.954;5.932;2023-04-25T14:14:12;8.30;92.10
53653;DHT22;39553;52.954;5.932;2023-04-25T14:16:41;8.50;91.70
53653;DHT22;39553;52.954;5.932;2023-04-25T14:19:10;8.90;93.10
53653;DHT22;39553;52.954;5.932;2023-04-25T14:21:36;9.40;84.10
53653;DHT22;39553;52.954;5.932;2023-04-25T14:24:02;9.80;81.50
53653;DHT22;39553;52.954;5.932;2023-04-25T14:26:28;9.80;83.90
53653;DHT22;39553;52.954;5.932;2023-04-25T14:28:53;10.00;82.80
53653;DHT22;39553;52.954;5.932;2023-04-25T14:31:19;10.20;81.70
53653;DHT22;39553;52.954;5.932;2023-04-25T14:33:45;10.20;78.90
53653;DHT22;39553;52.954;5.932;2023-04-25T14:36:11;10.20;79.90
53653;DHT22;39553;52.954;5.932;2023-04-25T14:38:37;10.40;76.90
53653;DHT22;39553;52.954;5.932;2023-04-25T14:41:03;10.30;80.90
53653;DHT22;39553;52.954;5.932;2023-04-25T14:43:29;10.10;84.40
53653;DHT22;39553;52.954;5.932;2023-04-25T14:45:58;9.70;83.50
53653;DHT22;39553;52.954;5.932;2023-04-25T14:48:24;10.20;85.10
53653;DHT22;39553;52.954;5.932;2023-04-25T14:50:50;10.20;78.40
53653;DHT22;39553;52.954;5.932;2023-04-25T14:53:15;10.20;80.80
53653;DHT22;39553;52.954;5.932;2023-04-25T14:55:41;10.00;81.40
53653;DHT22;39553;52.954;5.932;2023-04-25T14:58:07;9.60;81.70
53653;DHT22;39553;52.954;5.932;2023-04-25T15:00:33;9.30;81.20
53653;DHT22;39553;52.954;5.932;2023-04-25T15:02:59;9.20;81.10
53653;DHT22;39553;52.954;5.932;2023-04-25T15:05:25;9.20;82.90
53653;DHT22;39553;52.954;5.932;2023-04-25T15:07:51;9.20;82.90
53653;DHT22;39553;52.954;5.932;2023-04-25T15:10:17;9.00;90.00
53653;DHT22;39553;52.954;5.932;2023-04-25T15:12:44;8.70;91.70
53653;DHT22;39553;52.954;5.932;2023-04-25T15:15:11;8.50;92.90
53653;DHT22;39553;52.954;5.932;2023-04-25T15:17:46;8.10;97.70
53653;DHT22;39553;52.954;5.932;2023-04-25T15:20:13;7.80;99.90
53653;DHT22;39553;52.954;5.932;2023-04-25T15:22:42;8.00;99.90
53653;DHT22;39553;52.954;5.932;2023-04-25T15:25:09;8.40;99.90
53653;DHT22;39553;52.954;5.932;2023-04-25T15:27:36;8.30;99.90
53653;DHT22;39553;52.954;5.932;2023-04-25T15:30:12;8.20;98.70
53653;DHT22;39553;52.954;5.932;2023-04-25T15:32:42;8.10;98.20
53653;DHT22;39553;52.954;5.932;2023-04-25T15:35:08;8.20;98.80
53653;DHT22;39553;52.954;5.932;2023-04-25T15:37:35;8.80;96.90
53653;DHT22;39553;52.954;5.932;2023-04-25T15:40:10;9.20;94.40
53653;DHT22;39553;52.954;5.932;2023-04-25T15:42:41;10.00;92.30
53653;DHT22;39553;52.954;5.932;2023-04-25T15:45:09;10.20;88.90
53653;DHT22;39553;52.954;5.932;2023-04-25T15:47:36;10.50;91.60